createdAt,value
2023-05-24T00:01:28.886Z,18.39
2023-05-24T00:04:02.055Z,18.42
2023-05-24T00:06:36.220Z,18.40
2023-05-24T00:09:09.151Z,18.43
2023-05-24T00:11:39.422Z,18.43
2023-05-24T00:14:09.410Z,18.39
2023-05-24T00:16:39.850Z,18.38
2023-05-24T00:19:18.900Z,18.34
2023-05-24T00:21:50.483Z,18.29
2023-05-24T00:24:20.993Z,18.32
2023-05-24T00:26:51.434Z,18.33
2023-05-24T00:29:21.705Z,18.31
2023-05-24T00:31:53.704Z,18.32
2023-05-24T00:34:29.352Z,18.34
2023-05-24T00:37:00.911Z,18.35
2023-05-24T00:39:33.510Z,18.37
2023-05-24T00:42:03.859Z,18.39
2023-05-24T00:44:36.867Z,18.35
2023-05-24T00:47:07.618Z,18.30
2023-05-24T00:49:40.602Z,18.31
2023-05-24T00:52:17.532Z,18.32
2023-05-24T00:54:47.942Z,18.34
2023-05-24T00:57:19.168Z,18.34
2023-05-24T00:59:49.833Z,18.32
2023-05-24T01:02:20.973Z,18.36
2023-05-24T01:04:56.492Z,18.33
2023-05-24T01:07:38.107Z,18.35
2023-05-24T01:10:17.564Z,18.33
2023-05-24T01:12:59.337Z,18.31
2023-05-24T01:15:46.171Z,18.27
2023-05-24T01:18:26.372Z,18.28
2023-05-24T01:21:24.037Z,18.29
2023-05-24T01:24:07.741Z,18.33
2023-05-24T01:26:43.108Z,18.34
2023-05-24T01:29:17.022Z,18.33
2023-05-24T01:31:50.699Z,18.30
2023-05-24T01:34:21.058Z,18.30
2023-05-24T01:36:54.008Z,18.31
2023-05-24T01:39:25.172Z,18.34
2023-05-24T01:42:10.717Z,18.29
2023-05-24T01:44:50.833Z,18.29
2023-05-24T01:47:31.805Z,18.30
2023-05-24T01:50:10.261Z,18.27
2023-05-24T01:52:47.086Z,18.24
2023-05-24T01:55:20.300Z,18.26
2023-05-24T01:57:53.626Z,18.23
2023-05-24T02:00:26.961Z,18.20
2023-05-24T02:03:02.489Z,18.14
2023-05-24T02:05:34.958Z,18.12
2023-05-24T02:08:06.280Z,18.08
2023-05-24T02:10:38.840Z,18.02
2023-05-24T02:13:12.182Z,17.99
2023-05-24T02:15:46.818Z,18.01
2023-05-24T02:18:18.896Z,18.01
2023-05-24T02:20:49.187Z,18.04
2023-05-24T02:23:23.427Z,18.02
2023-05-24T02:25:53.702Z,18.04
2023-05-24T02:28:23.685Z,18.04
2023-05-24T02:30:57.808Z,18.05
2023-05-24T02:33:31.096Z,18.01
2023-05-24T02:36:01.492Z,18.01
2023-05-24T02:38:33.447Z,18.02
2023-05-24T02:41:03.737Z,18.00
2023-05-24T02:43:33.644Z,18.00
2023-05-24T02:46:06.637Z,18.00
2023-05-24T02:48:37.063Z,17.96
2023-05-24T02:51:07.398Z,17.93
2023-05-24T02:53:37.741Z,17.90
2023-05-24T02:56:08.964Z,17.91
2023-05-24T02:58:40.826Z,17.90
2023-05-24T03:01:13.862Z,17.88
2023-05-24T03:03:47.143Z,17.86
2023-05-24T03:06:17.758Z,17.88
2023-05-24T03:08:51.333Z,17.88
2023-05-24T03:11:24.279Z,17.88
2023-05-24T03:13:55.149Z,17.83
2023-05-24T03:16:28.389Z,17.84
2023-05-24T03:19:00.256Z,17.81
2023-05-24T03:21:33.232Z,17.88
2023-05-24T03:24:06.819Z,17.91
2023-05-24T03:26:37.109Z,17.93
2023-05-24T03:29:09.675Z,17.96
2023-05-24T03:31:42.627Z,18.01
2023-05-24T03:34:13.578Z,18.11
2023-05-24T03:36:43.797Z,18.20
2023-05-24T03:39:14.009Z,18.33
2023-05-24T03:41:44.454Z,18.30
2023-05-24T03:44:14.720Z,18.44
2023-05-24T03:46:47.239Z,18.43
2023-05-24T03:49:18.665Z,18.43
2023-05-24T03:51:48.980Z,18.46
2023-05-24T03:54:19.843Z,18.47
2023-05-24T03:56:50.378Z,18.59
2023-05-24T03:59:20.854Z,18.61
2023-05-24T04:01:53.732Z,18.67
2023-05-24T04:04:24.976Z,18.72
2023-05-24T04:06:58.631Z,18.81
2023-05-24T04:09:28.953Z,18.76
2023-05-24T04:12:08.501Z,18.73
2023-05-24T04:14:38.799Z,18.80
2023-05-24T04:17:12.698Z,19.02
2023-05-24T04:19:43.026Z,19.22
2023-05-24T04:22:16.108Z,19.91
2023-05-24T04:24:46.662Z,20.75
2023-05-24T04:27:18.247Z,21.52
2023-05-24T04:29:54.717Z,21.24
2023-05-24T04:32:30.648Z,20.72
2023-05-24T04:35:02.877Z,20.43
2023-05-24T04:37:33.487Z,19.99
2023-05-24T04:40:04.522Z,19.75
2023-05-24T04:42:34.799Z,19.73
2023-05-24T04:45:04.953Z,19.65
2023-05-24T04:47:37.879Z,19.63
2023-05-24T04:50:09.338Z,19.66
2023-05-24T04:52:39.738Z,19.73
2023-05-24T04:55:11.002Z,19.78
2023-05-24T04:57:41.353Z,19.89
2023-05-24T05:00:14.205Z,19.97
2023-05-24T05:02:47.272Z,20.16
2023-05-24T05:05:17.969Z,20.44
2023-05-24T05:07:48.318Z,21.00
2023-05-24T05:10:23.658Z,21.82
2023-05-24T05:12:54.151Z,22.87
2023-05-24T05:15:25.969Z,23.67
2023-05-24T05:17:58.862Z,24.26
2023-05-24T05:20:29.259Z,25.29
2023-05-24T05:23:02.203Z,25.74
2023-05-24T05:25:32.614Z,25.58
2023-05-24T05:28:03.006Z,25.16
2023-05-24T05:30:33.233Z,25.21
2023-05-24T05:33:06.439Z,25.59
2023-05-24T05:35:36.746Z,25.65
2023-05-24T05:38:07.418Z,25.66
2023-05-24T05:40:37.900Z,25.51
2023-05-24T05:43:08.737Z,25.06
2023-05-24T05:45:39.000Z,24.54
2023-05-24T05:48:12.787Z,24.09
2023-05-24T05:50:43.330Z,23.62
2023-05-24T05:53:18.426Z,23.50
2023-05-24T05:55:48.938Z,23.22
2023-05-24T05:58:19.243Z,22.91
2023-05-24T06:00:49.512Z,22.97
2023-05-24T06:03:25.547Z,22.85
2023-05-24T06:05:56.205Z,22.77
2023-05-24T06:08:26.607Z,22.62
2023-05-24T06:10:56.813Z,22.50
2023-05-24T06:13:28.713Z,22.39
2023-05-24T06:15:59.151Z,22.48
2023-05-24T06:18:34.893Z,22.50
2023-05-24T06:21:05.214Z,22.43
2023-05-24T06:23:35.557Z,22.47
2023-05-24T06:26:06.038Z,22.57
2023-05-24T06:28:36.469Z,22.67
2023-05-24T06:31:09.071Z,22.72
2023-05-24T06:33:52.486Z,22.64
2023-05-24T06:36:26.633Z,22.73
2023-05-24T06:38:59.284Z,22.77
2023-05-24T06:41:30.176Z,22.91
2023-05-24T06:44:00.453Z,23.10
2023-05-24T06:46:30.765Z,23.21
2023-05-24T06:49:07.443Z,23.37
2023-05-24T06:51:38.389Z,23.48
2023-05-24T06:54:11.433Z,23.57
2023-05-24T06:56:41.754Z,23.62
2023-05-24T06:59:11.996Z,23.78
2023-05-24T07:01:43.733Z,23.83
2023-05-24T07:04:16.765Z,23.82
2023-05-24T07:06:47.089Z,23.93
2023-05-24T07:09:17.537Z,23.91
2023-05-24T07:11:48.024Z,24.09
2023-05-24T07:14:19.789Z,24.68
2023-05-24T07:16:52.506Z,25.41
2023-05-24T07:19:29.401Z,26.09
2023-05-24T07:22:00.128Z,26.27
2023-05-24T07:24:30.863Z,26.02
2023-05-24T07:27:01.219Z,26.19
2023-05-24T07:29:31.733Z,26.31
2023-05-24T07:32:02.126Z,26.26
2023-05-24T07:34:35.235Z,26.32
2023-05-24T07:37:08.502Z,26.70
2023-05-24T07:39:39.218Z,27.31
2023-05-24T07:42:09.729Z,27.66
2023-05-24T07:44:40.801Z,27.81
2023-05-24T07:47:12.137Z,27.63
2023-05-24T07:49:45.354Z,27.70
2023-05-24T07:52:15.602Z,27.72
2023-05-24T07:54:45.860Z,28.06
2023-05-24T07:57:16.116Z,28.82
2023-05-24T07:59:46.378Z,29.28
2023-05-24T08:02:17.272Z,29.74
2023-05-24T08:04:50.214Z,28.99
2023-05-24T08:07:21.612Z,29.14
2023-05-24T08:09:52.028Z,29.34
2023-05-24T08:12:22.281Z,29.66
2023-05-24T08:14:52.678Z,30.02
2023-05-24T08:17:22.931Z,30.03
2023-05-24T08:19:56.489Z,28.95
2023-05-24T08:22:26.850Z,28.38
2023-05-24T08:24:57.630Z,29.00
2023-05-24T08:27:29.076Z,29.92
2023-05-24T08:29:59.445Z,29.74
2023-05-24T08:32:29.816Z,29.89
2023-05-24T08:35:14.953Z,29.54
2023-05-24T08:37:50.013Z,28.82
2023-05-24T08:40:20.661Z,28.58
2023-05-24T08:42:52.874Z,27.87
2023-05-24T08:45:25.067Z,27.54
2023-05-24T08:47:55.869Z,27.38
2023-05-24T08:50:34.931Z,27.43
2023-05-24T08:53:05.675Z,27.30
2023-05-24T08:55:38.968Z,27.33
2023-05-24T08:58:09.920Z,27.56
2023-05-24T09:00:41.348Z,27.53
2023-05-24T09:03:13.304Z,27.18
2023-05-24T09:05:47.243Z,26.98
2023-05-24T09:08:20.963Z,26.80
2023-05-24T09:10:55.341Z,27.13
2023-05-24T09:13:27.260Z,27.74
2023-05-24T09:15:57.614Z,28.35
2023-05-24T09:18:27.917Z,28.50
2023-05-24T09:21:00.898Z,27.76
2023-05-24T09:23:31.658Z,27.76
2023-05-24T09:26:09.935Z,27.80
2023-05-24T09:28:42.042Z,27.12
2023-05-24T09:31:12.647Z,26.55
2023-05-24T09:33:43.573Z,26.21
2023-05-24T09:36:20.556Z,25.63
2023-05-24T09:38:51.976Z,25.47
2023-05-24T09:41:26.214Z,25.32
2023-05-24T09:43:56.643Z,25.22
2023-05-24T09:46:27.414Z,25.26
2023-05-24T09:49:03.752Z,25.25
2023-05-24T09:51:39.882Z,25.39
2023-05-24T09:54:09.966Z,25.29
2023-05-24T09:56:43.361Z,25.28
2023-05-24T09:59:14.275Z,25.42
2023-05-24T10:01:44.915Z,25.32
2023-05-24T10:04:15.736Z,24.69
2023-05-24T10:06:50.437Z,24.35
2023-05-24T10:09:20.932Z,24.22
2023-05-24T10:11:51.952Z,23.81
2023-05-24T10:14:22.963Z,23.74
2023-05-24T10:16:53.427Z,23.38
2023-05-24T10:19:24.446Z,23.31
2023-05-24T10:21:59.421Z,23.03
2023-05-24T10:24:43.025Z,23.04
2023-05-24T10:27:18.616Z,22.48
2023-05-24T10:30:00.113Z,22.20
2023-05-24T10:32:33.509Z,21.95
2023-05-24T10:35:04.106Z,22.33
2023-05-24T10:37:37.384Z,22.00
2023-05-24T10:40:10.284Z,22.15
2023-05-24T10:42:42.808Z,21.73
2023-05-24T10:45:37.524Z,21.17
2023-05-24T10:48:36.450Z,20.86
2023-05-24T10:51:36.878Z,20.62
2023-05-24T10:54:21.774Z,20.60
2023-05-24T10:56:53.795Z,20.36
2023-05-24T10:59:44.623Z,20.12
2023-05-24T11:02:16.870Z,20.00
2023-05-24T11:04:50.707Z,20.19
2023-05-24T11:07:22.275Z,20.38
2023-05-24T11:10:02.885Z,20.70
2023-05-24T11:12:38.867Z,20.92
2023-05-24T11:15:12.752Z,20.87
2023-05-24T11:18:12.953Z,21.17
2023-05-24T11:20:45.427Z,21.48
2023-05-24T11:23:18.401Z,21.76
2023-05-24T11:25:52.731Z,21.97
2023-05-24T11:28:24.024Z,21.93
2023-05-24T11:30:54.480Z,21.82
2023-05-24T11:33:27.464Z,21.97
2023-05-24T11:35:58.423Z,22.33
2023-05-24T11:38:30.766Z,22.55
2023-05-24T11:41:04.534Z,22.44
2023-05-24T11:43:34.875Z,22.43
2023-05-24T11:46:05.650Z,22.60
2023-05-24T11:48:36.333Z,22.84
2023-05-24T11:51:08.406Z,22.89
2023-05-24T11:53:41.572Z,23.12
2023-05-24T11:56:14.491Z,23.44
2023-05-24T11:58:51.984Z,23.91
2023-05-24T12:01:29.702Z,24.14
2023-05-24T12:04:02.243Z,24.37
2023-05-24T12:06:38.508Z,24.86
2023-05-24T12:09:13.465Z,24.92
2023-05-24T12:11:51.039Z,25.07
2023-05-24T12:14:22.985Z,25.27
2023-05-24T12:16:53.646Z,25.50
2023-05-24T12:19:32.920Z,25.91
2023-05-24T12:22:05.341Z,26.03
2023-05-24T12:24:35.999Z,25.84
2023-05-24T12:27:10.345Z,25.91
2023-05-24T12:29:43.703Z,25.98
2023-05-24T12:32:15.651Z,26.22
2023-05-24T12:34:47.956Z,26.34
2023-05-24T12:37:18.818Z,26.26
2023-05-24T12:39:49.102Z,26.54
2023-05-24T12:42:27.150Z,26.92
2023-05-24T12:44:57.619Z,27.13
2023-05-24T12:47:28.002Z,27.04
2023-05-24T12:49:58.734Z,27.18
2023-05-24T12:52:34.292Z,27.25
2023-05-24T12:55:04.674Z,27.15
2023-05-24T12:57:37.897Z,27.11
2023-05-24T13:00:11.115Z,27.00
2023-05-24T13:02:43.396Z,26.86
2023-05-24T13:05:14.029Z,26.75
2023-05-24T13:07:47.854Z,26.77
2023-05-24T13:10:18.210Z,27.00
2023-05-24T13:12:51.188Z,27.10
2023-05-24T13:15:24.334Z,26.99
2023-05-24T13:17:55.023Z,26.76
2023-05-24T13:20:25.517Z,26.52
2023-05-24T13:22:55.833Z,26.16
2023-05-24T13:25:26.987Z,26.16
2023-05-24T13:28:00.269Z,26.35
2023-05-24T13:30:30.646Z,26.55
2023-05-24T13:33:01.631Z,26.72
2023-05-24T13:35:33.218Z,26.80
2023-05-24T13:38:06.272Z,26.97
2023-05-24T13:40:38.332Z,26.91
2023-05-24T13:43:13.056Z,26.84
2023-05-24T13:45:43.396Z,26.78
2023-05-24T13:48:14.078Z,26.57
2023-05-24T13:50:45.192Z,26.50
2023-05-24T13:53:15.754Z,26.34
2023-05-24T13:55:46.046Z,26.05
2023-05-24T13:58:21.613Z,26.20
2023-05-24T14:00:54.748Z,26.27
2023-05-24T14:03:27.165Z,26.23
2023-05-24T14:05:57.578Z,26.24
2023-05-24T14:08:27.952Z,26.06
2023-05-24T14:10:58.352Z,26.03
2023-05-24T14:14:32.895Z,26.21
2023-05-24T14:16:22.178Z,25.70
2023-05-24T14:18:53.006Z,25.99
2023-05-24T14:21:27.590Z,25.98
2023-05-24T14:23:58.182Z,25.73
2023-05-24T14:26:28.864Z,26.14
2023-05-24T14:29:01.922Z,26.12
2023-05-24T14:31:35.879Z,26.08
2023-05-24T14:34:06.275Z,26.00
2023-05-24T14:36:36.846Z,26.00
2023-05-24T14:39:07.534Z,26.21
2023-05-24T14:41:38.160Z,26.24
2023-05-24T14:44:11.126Z,26.39
2023-05-24T14:46:41.577Z,26.60
2023-05-24T14:49:11.968Z,26.68
2023-05-24T14:51:42.352Z,26.66
2023-05-24T14:54:14.795Z,26.52
2023-05-24T14:56:47.534Z,26.49
2023-05-24T14:59:20.444Z,26.26
2023-05-24T15:01:50.793Z,26.38
2023-05-24T15:04:23.217Z,26.37
2023-05-24T15:06:53.467Z,26.13
2023-05-24T15:09:23.825Z,25.74
2023-05-24T15:11:56.569Z,25.80
2023-05-24T15:14:29.564Z,26.02
2023-05-24T15:16:59.930Z,25.82
2023-05-24T15:19:30.756Z,25.56
2023-05-24T15:22:01.090Z,25.42
2023-05-24T15:24:31.433Z,25.08
2023-05-24T15:27:02.057Z,24.91
2023-05-24T15:29:34.973Z,24.66
2023-05-24T15:32:05.276Z,24.48
2023-05-24T15:34:35.643Z,24.67
2023-05-24T15:37:05.907Z,24.69
2023-05-24T15:39:37.719Z,24.38
2023-05-24T15:42:11.127Z,24.27
2023-05-24T15:44:44.120Z,24.28
2023-05-24T15:47:17.570Z,24.41
2023-05-24T15:52:19.016Z,24.65
2023-05-24T15:54:51.421Z,24.72
2023-05-24T15:57:22.258Z,24.59
2023-05-24T15:59:55.932Z,24.65
2023-05-24T16:02:26.449Z,24.58
2023-05-24T16:04:57.663Z,24.63
2023-05-24T16:07:27.993Z,24.68
2023-05-24T16:09:58.262Z,24.52
2023-05-24T16:12:30.144Z,24.58
2023-05-24T16:15:03.760Z,24.60
2023-05-24T16:17:34.266Z,24.51
2023-05-24T16:20:04.900Z,24.56
2023-05-24T16:22:37.751Z,24.29
2023-05-24T16:25:09.004Z,24.06
2023-05-24T16:27:39.278Z,23.86
2023-05-24T16:30:13.256Z,24.05
2023-05-24T16:32:45.466Z,24.16
2023-05-24T16:35:15.821Z,24.21
2023-05-24T16:37:46.086Z,24.20
2023-05-24T16:40:16.435Z,24.14
2023-05-24T16:42:46.945Z,24.06
2023-05-24T16:45:22.473Z,24.06
2023-05-24T16:47:52.822Z,23.80
2023-05-24T16:50:23.063Z,23.88
2023-05-24T16:52:56.326Z,23.66
2023-05-24T16:55:26.929Z,23.76
2023-05-24T16:58:03.174Z,23.70
2023-05-24T17:00:35.772Z,23.73
2023-05-24T17:03:06.107Z,23.52
2023-05-24T17:05:37.510Z,23.54
2023-05-24T17:08:08.654Z,23.45
2023-05-24T17:10:39.218Z,23.36
2023-05-24T17:13:09.525Z,23.27
2023-05-24T17:15:42.466Z,23.27
2023-05-24T17:18:12.884Z,23.23
2023-05-24T17:20:43.365Z,23.26
2023-05-24T17:23:15.033Z,23.31
2023-05-24T17:25:45.390Z,23.15
2023-05-24T17:28:15.706Z,22.97
2023-05-24T17:30:48.822Z,23.00
2023-05-24T17:33:19.091Z,22.97
2023-05-24T17:35:49.320Z,23.02
2023-05-24T17:38:19.722Z,23.06
2023-05-24T17:40:56.077Z,23.00
2023-05-24T17:43:29.183Z,22.68
2023-05-24T17:46:07.125Z,22.46
2023-05-24T17:48:38.935Z,22.19
2023-05-24T17:51:10.877Z,22.21
2023-05-24T17:53:45.891Z,22.08
2023-05-24T17:56:18.855Z,22.14
2023-05-24T17:58:50.276Z,22.08
2023-05-24T18:01:23.989Z,21.93
2023-05-24T18:03:54.718Z,21.96
2023-05-24T18:06:25.131Z,21.87
2023-05-24T18:08:58.175Z,21.86
2023-05-24T18:11:28.735Z,21.81
2023-05-24T18:14:03.312Z,21.77
2023-05-24T18:16:39.469Z,21.70
2023-05-24T18:19:09.775Z,21.65
2023-05-24T18:21:40.429Z,21.57
2023-05-24T18:24:10.980Z,21.49
2023-05-24T18:26:41.860Z,21.46
2023-05-24T18:29:12.565Z,21.40
2023-05-24T18:31:47.178Z,21.33
2023-05-24T18:34:18.061Z,21.25
2023-05-24T18:36:48.427Z,21.20
2023-05-24T18:39:19.264Z,21.06
2023-05-24T18:41:52.226Z,21.04
2023-05-24T18:44:24.044Z,21.08
2023-05-24T18:46:58.289Z,21.03
2023-05-24T18:49:29.026Z,21.00
2023-05-24T18:52:00.639Z,20.94
2023-05-24T18:54:31.641Z,20.89
2023-05-24T18:57:04.853Z,20.87
2023-05-24T18:59:35.503Z,20.84
2023-05-24T19:02:09.340Z,20.79
2023-05-24T19:04:44.190Z,20.73
2023-05-24T19:07:14.510Z,20.68
2023-05-24T19:09:44.920Z,20.63
2023-05-24T19:12:15.292Z,20.60
2023-05-24T19:14:47.924Z,20.55
2023-05-24T19:17:24.409Z,20.54
2023-05-24T19:19:54.938Z,20.53
2023-05-24T19:22:26.422Z,20.46
2023-05-24T19:24:59.761Z,20.43
2023-05-24T19:27:30.269Z,20.40
2023-05-24T19:30:01.749Z,20.35
2023-05-24T19:32:38.785Z,20.30
2023-05-24T19:35:11.350Z,20.25
2023-05-24T19:37:41.796Z,20.21
2023-05-24T19:40:13.246Z,20.17
2023-05-24T19:42:43.649Z,20.11
2023-05-24T19:45:14.515Z,20.04
2023-05-24T19:47:48.280Z,19.96
2023-05-24T19:50:19.124Z,19.88
2023-05-24T19:52:50.406Z,19.85
2023-05-24T19:55:20.850Z,19.78
2023-05-24T19:57:51.497Z,19.76
2023-05-24T20:00:22.354Z,19.70
2023-05-24T20:02:56.061Z,19.72
2023-05-24T20:05:26.446Z,19.72
2023-05-24T20:07:56.726Z,19.65
2023-05-24T20:10:27.909Z,19.61
2023-05-24T20:12:58.238Z,19.57
2023-05-24T20:15:30.254Z,19.53
2023-05-24T20:18:03.259Z,19.51
2023-05-24T20:20:33.658Z,19.48
2023-05-24T20:23:04.126Z,19.43
2023-05-24T20:25:34.487Z,19.38
2023-05-24T20:28:12.727Z,19.33
2023-05-24T20:30:48.770Z,19.33
2023-05-24T20:33:21.702Z,19.32
2023-05-24T20:35:53.225Z,19.31
2023-05-24T20:38:23.594Z,19.30
2023-05-24T20:40:53.926Z,19.27
2023-05-24T20:43:27.099Z,19.30
2023-05-24T20:45:57.616Z,19.26
2023-05-24T20:48:31.400Z,19.20
2023-05-24T20:51:01.732Z,19.14
2023-05-24T20:53:32.034Z,19.09
2023-05-24T20:56:02.282Z,19.04
2023-05-24T20:58:32.806Z,19.00
2023-05-24T21:01:05.460Z,18.94
2023-05-24T21:03:40.573Z,18.89
2023-05-24T21:06:12.125Z,18.83
2023-05-24T21:08:42.383Z,18.76
2023-05-24T21:11:12.675Z,18.68
2023-05-24T21:13:43.705Z,18.64
2023-05-24T21:16:14.421Z,18.61
2023-05-24T21:18:46.994Z,18.58
2023-05-24T21:21:17.596Z,18.60
2023-05-24T21:23:48.366Z,18.61
2023-05-24T21:26:18.874Z,18.61
2023-05-24T21:28:49.801Z,18.60
2023-05-24T21:31:20.938Z,18.61
2023-05-24T21:33:53.956Z,18.64
2023-05-24T21:36:24.549Z,18.73
2023-05-24T21:38:57.145Z,18.77
2023-05-24T21:41:27.482Z,18.32
2023-05-24T21:43:57.752Z,18.16
2023-05-24T21:46:29.349Z,18.03
2023-05-24T21:49:02.315Z,17.96
2023-05-24T21:51:33.309Z,17.99
2023-05-24T21:54:03.592Z,18.10
2023-05-24T21:56:36.280Z,18.08
2023-05-24T21:59:06.588Z,18.01
2023-05-24T22:01:37.169Z,17.96
2023-05-24T22:04:11.522Z,17.92
2023-05-24T22:06:42.953Z,17.87
2023-05-24T22:09:14.000Z,17.65
2023-05-24T22:11:46.966Z,17.48
2023-05-24T22:14:17.529Z,17.42
2023-05-24T22:16:51.178Z,17.40
2023-05-24T22:19:39.618Z,17.40
2023-05-24T22:22:12.757Z,17.58
2023-05-24T22:24:43.743Z,17.64
2023-05-24T22:27:14.156Z,17.61
2023-05-24T22:29:44.709Z,17.57
2023-05-24T22:32:15.253Z,17.62
2023-05-24T22:34:48.391Z,17.29
2023-05-24T22:37:19.577Z,17.22
2023-05-24T22:39:50.100Z,17.17
2023-05-24T22:42:20.621Z,17.28
2023-05-24T22:44:51.490Z,17.35
2023-05-24T22:47:23.039Z,17.34
2023-05-24T22:49:57.053Z,17.35
2023-05-24T22:52:27.626Z,17.34
2023-05-24T22:54:58.067Z,17.30
2023-05-24T22:57:28.705Z,17.26
2023-05-24T22:59:59.214Z,17.25
2023-05-24T23:02:30.313Z,17.20
2023-05-24T23:05:11.859Z,17.18
2023-05-24T23:07:42.778Z,17.14
2023-05-24T23:10:17.720Z,17.10
2023-05-24T23:12:50.864Z,17.05
2023-05-24T23:15:21.625Z,17.02
2023-05-24T23:17:52.715Z,17.00
2023-05-24T23:20:26.163Z,16.97
2023-05-24T23:22:56.799Z,16.95
2023-05-24T23:25:29.450Z,16.91
2023-05-24T23:27:59.958Z,16.90
2023-05-24T23:30:36.044Z,16.88
2023-05-24T23:33:06.669Z,16.80
2023-05-24T23:35:39.977Z,16.75
2023-05-24T23:38:12.624Z,16.69
2023-05-24T23:40:43.154Z,16.64
2023-05-24T23:43:16.419Z,16.64
2023-05-24T23:45:49.468Z,16.62
2023-05-24T23:48:20.007Z,16.56
2023-05-24T23:50:54.683Z,16.54
2023-05-24T23:53:27.751Z,16.51
2023-05-24T23:55:58.269Z,16.48
2023-05-24T23:58:32.223Z,16.48
